sensor_id;sensor_type;location;lat;lon;timestamp;P1;durP1;ratioP1;P2;durP2;ratioP2
4674;SDS011;2351;50.812;12.872;2023-01-10T00:00:25;2.10;;;1.30;;
4674;SDS011;2351;50.812;12.872;2023-01-10T00:03:04;1.90;;;1.23;;
4674;SDS011;2351;50.812;12.872;2023-01-10T00:05:38;3.20;;;1.93;;
4674;SDS011;2351;50.812;12.872;2023-01-10T00:08:13;2.60;;;1.90;;
4674;SDS011;2351;50.812;12.872;2023-01-10T00:10:48;2.20;;;1.67;;
4674;SDS011;2351;50.812;12.872;2023-01-10T00:13:19;2.50;;;1.70;;
4674;SDS011;2351;50.812;12.872;2023-01-10T00:15:53;1.67;;;1.50;;
4674;SDS011;2351;50.812;12.872;2023-01-10T00:18:26;2.30;;;1.53;;
4674;SDS011;2351;50.812;12.872;2023-01-10T00:20:57;1.70;;;1.60;;
4674;SDS011;2351;50.812;12.872;2023-01-10T00:23:30;1.37;;;1.27;;
4674;SDS011;2351;50.812;12.872;2023-01-10T00:26:04;3.50;;;1.77;;
4674;SDS011;2351;50.812;12.872;2023-01-10T00:28:36;2.30;;;1.53;;
4674;SDS011;2351;50.812;12.872;2023-01-10T00:31:08;2.27;;;1.90;;
4674;SDS011;2351;50.812;12.872;2023-01-10T00:33:41;2.50;;;1.77;;
4674;SDS011;2351;50.812;12.872;2023-01-10T00:36:13;3.70;;;2.00;;
4674;SDS011;2351;50.812;12.872;2023-01-10T00:38:44;2.53;;;2.17;;
4674;SDS011;2351;50.812;12.872;2023-01-10T00:41:17;2.00;;;1.80;;
4674;SDS011;2351;50.812;12.872;2023-01-10T00:44:07;5.97;;;1.87;;
4674;SDS011;2351;50.812;12.872;2023-01-10T00:46:39;3.47;;;2.17;;
4674;SDS011;2351;50.812;12.872;2023-01-10T00:49:10;2.80;;;1.97;;
4674;SDS011;2351;50.812;12.872;2023-01-10T00:51:45;4.00;;;1.80;;
4674;SDS011;2351;50.812;12.872;2023-01-10T00:54:17;2.80;;;1.90;;
4674;SDS011;2351;50.812;12.872;2023-01-10T00:56:50;4.00;;;1.90;;
4674;SDS011;2351;50.812;12.872;2023-01-10T00:59:22;2.17;;;1.43;;
4674;SDS011;2351;50.812;12.872;2023-01-10T01:01:54;6.33;;;2.33;;
4674;SDS011;2351;50.812;12.872;2023-01-10T01:04:26;4.30;;;1.60;;
4674;SDS011;2351;50.812;12.872;2023-01-10T01:07:03;1.60;;;1.50;;
4674;SDS011;2351;50.812;12.872;2023-01-10T01:09:34;2.00;;;1.80;;
4674;SDS011;2351;50.812;12.872;2023-01-10T01:12:27;4.87;;;1.80;;
4674;SDS011;2351;50.812;12.872;2023-01-10T01:14:59;5.80;;;2.07;;
4674;SDS011;2351;50.812;12.872;2023-01-10T01:17:31;4.27;;;2.27;;
4674;SDS011;2351;50.812;12.872;2023-01-10T01:20:03;2.00;;;1.73;;
4674;SDS011;2351;50.812;12.872;2023-01-10T01:22:35;8.60;;;2.33;;
4674;SDS011;2351;50.812;12.872;2023-01-10T01:25:07;4.53;;;1.93;;
4674;SDS011;2351;50.812;12.872;2023-01-10T01:27:41;2.60;;;1.80;;
4674;SDS011;2351;50.812;12.872;2023-01-10T01:30:13;2.90;;;2.17;;
4674;SDS011;2351;50.812;12.872;2023-01-10T01:32:45;4.20;;;2.07;;
4674;SDS011;2351;50.812;12.872;2023-01-10T01:35:17;4.20;;;2.40;;
4674;SDS011;2351;50.812;12.872;2023-01-10T01:37:49;1.53;;;1.43;;
4674;SDS011;2351;50.812;12.872;2023-01-10T01:40:21;3.60;;;2.23;;
4674;SDS011;2351;50.812;12.872;2023-01-10T01:42:55;5.23;;;1.60;;
4674;SDS011;2351;50.812;12.872;2023-01-10T01:48:18;4.50;;;1.97;;
4674;SDS011;2351;50.812;12.872;2023-01-10T01:50:59;2.27;;;1.80;;
4674;SDS011;2351;50.812;12.872;2023-01-10T01:53:38;2.00;;;1.33;;
4674;SDS011;2351;50.812;12.872;2023-01-10T01:56:13;3.10;;;2.00;;
4674;SDS011;2351;50.812;12.872;2023-01-10T01:58:49;3.60;;;2.10;;
4674;SDS011;2351;50.812;12.872;2023-01-10T02:01:24;6.47;;;2.20;;
4674;SDS011;2351;50.812;12.872;2023-01-10T02:03:59;4.23;;;2.40;;
4674;SDS011;2351;50.812;12.872;2023-01-10T02:06:36;4.83;;;2.10;;
4674;SDS011;2351;50.812;12.872;2023-01-10T02:09:10;5.50;;;2.00;;
4674;SDS011;2351;50.812;12.872;2023-01-10T02:11:51;22.20;;;2.80;;
4674;SDS011;2351;50.812;12.872;2023-01-10T02:14:24;4.80;;;2.93;;
4674;SDS011;2351;50.812;12.872;2023-01-10T02:16:57;3.93;;;2.80;;
4674;SDS011;2351;50.812;12.872;2023-01-10T02:19:31;4.10;;;2.37;;
4674;SDS011;2351;50.812;12.872;2023-01-10T02:31:51;2.47;;;2.00;;
4674;SDS011;2351;50.812;12.872;2023-01-10T02:34:41;4.70;;;2.53;;
4674;SDS011;2351;50.812;12.872;2023-01-10T02:37:24;2.03;;;1.83;;
4674;SDS011;2351;50.812;12.872;2023-01-10T02:40:08;3.93;;;2.03;;
4674;SDS011;2351;50.812;12.872;2023-01-10T02:42:45;2.00;;;1.53;;
4674;SDS011;2351;50.812;12.872;2023-01-10T02:45:23;7.30;;;3.33;;
4674;SDS011;2351;50.812;12.872;2023-01-10T02:48:01;5.43;;;2.70;;
4674;SDS011;2351;50.812;12.872;2023-01-10T02:50:42;8.13;;;3.40;;
4674;SDS011;2351;50.812;12.872;2023-01-10T02:53:21;8.30;;;2.93;;
4674;SDS011;2351;50.812;12.872;2023-01-10T02:56:06;6.90;;;2.73;;
4674;SDS011;2351;50.812;12.872;2023-01-10T03:02:08;2.63;;;2.23;;
4674;SDS011;2351;50.812;12.872;2023-01-10T03:04:46;4.97;;;3.00;;
4674;SDS011;2351;50.812;12.872;2023-01-10T03:07:27;3.50;;;2.47;;
4674;SDS011;2351;50.812;12.872;2023-01-10T03:10:06;2.70;;;2.23;;
4674;SDS011;2351;50.812;12.872;2023-01-10T03:12:46;5.00;;;3.00;;
4674;SDS011;2351;50.812;12.872;2023-01-10T03:15:21;13.87;;;2.63;;
4674;SDS011;2351;50.812;12.872;2023-01-10T03:17:58;5.57;;;3.00;;
4674;SDS011;2351;50.812;12.872;2023-01-10T03:20:34;7.23;;;3.13;;
4674;SDS011;2351;50.812;12.872;2023-01-10T03:23:07;4.17;;;2.53;;
4674;SDS011;2351;50.812;12.872;2023-01-10T03:25:41;4.70;;;2.97;;
4674;SDS011;2351;50.812;12.872;2023-01-10T03:28:15;5.20;;;3.00;;
4674;SDS011;2351;50.812;12.872;2023-01-10T03:30:53;4.40;;;2.77;;
4674;SDS011;2351;50.812;12.872;2023-01-10T03:33:31;5.03;;;2.50;;
4674;SDS011;2351;50.812;12.872;2023-01-10T03:36:08;4.60;;;2.93;;
4674;SDS011;2351;50.812;12.872;2023-01-10T03:38:51;6.00;;;2.17;;
4674;SDS011;2351;50.812;12.872;2023-01-10T03:41:29;3.70;;;2.50;;
4674;SDS011;2351;50.812;12.872;2023-01-10T03:44:11;7.17;;;3.30;;
4674;SDS011;2351;50.812;12.872;2023-01-10T03:47:04;8.87;;;3.17;;
4674;SDS011;2351;50.812;12.872;2023-01-10T03:49:40;4.07;;;2.50;;
4674;SDS011;2351;50.812;12.872;2023-01-10T03:52:18;6.40;;;3.00;;
4674;SDS011;2351;50.812;12.872;2023-01-10T03:54:51;5.67;;;2.67;;
4674;SDS011;2351;50.812;12.872;2023-01-10T03:57:23;6.77;;;2.93;;
4674;SDS011;2351;50.812;12.872;2023-01-10T03:59:56;5.60;;;3.30;;
4674;SDS011;2351;50.812;12.872;2023-01-10T04:02:29;2.87;;;2.53;;
4674;SDS011;2351;50.812;12.872;2023-01-10T04:05:02;3.50;;;2.63;;
4674;SDS011;2351;50.812;12.872;2023-01-10T04:07:35;6.07;;;2.90;;
4674;SDS011;2351;50.812;12.872;2023-01-10T04:10:07;10.97;;;3.33;;
4674;SDS011;2351;50.812;12.872;2023-01-10T04:12:40;6.83;;;3.77;;
4674;SDS011;2351;50.812;12.872;2023-01-10T04:15:11;5.80;;;2.67;;
4674;SDS011;2351;50.812;12.872;2023-01-10T04:17:43;4.83;;;2.77;;
4674;SDS011;2351;50.812;12.872;2023-01-10T04:20:15;4.17;;;2.70;;
4674;SDS011;2351;50.812;12.872;2023-01-10T04:22:48;3.63;;;2.70;;
4674;SDS011;2351;50.812;12.872;2023-01-10T04:25:20;3.17;;;1.77;;
4674;SDS011;2351;50.812;12.872;2023-01-10T04:27:52;4.17;;;2.67;;
4674;SDS011;2351;50.812;12.872;2023-01-10T04:30:24;4.23;;;2.87;;
4674;SDS011;2351;50.812;12.872;2023-01-10T04:32:56;4.77;;;2.47;;
4674;SDS011;2351;50.812;12.872;2023-01-10T04:35:28;9.37;;;3.53;;
4674;SDS011;2351;50.812;12.872;2023-01-10T04:38:01;6.13;;;2.83;;
4674;SDS011;2351;50.812;12.872;2023-01-10T04:40:33;5.10;;;3.07;;
4674;SDS011;2351;50.812;12.872;2023-01-10T04:43:04;6.07;;;3.00;;
4674;SDS011;2351;50.812;12.872;2023-01-10T04:45:36;4.07;;;2.77;;
4674;SDS011;2351;50.812;12.872;2023-01-10T04:48:08;3.10;;;2.30;;
4674;SDS011;2351;50.812;12.872;2023-01-10T04:50:39;6.40;;;2.63;;
4674;SDS011;2351;50.812;12.872;2023-01-10T04:53:12;3.90;;;2.60;;
4674;SDS011;2351;50.812;12.872;2023-01-10T04:55:44;5.57;;;3.30;;
4674;SDS011;2351;50.812;12.872;2023-01-10T04:58:16;4.77;;;2.90;;
4674;SDS011;2351;50.812;12.872;2023-01-10T05:00:48;5.03;;;2.90;;
4674;SDS011;2351;50.812;12.872;2023-01-10T05:03:21;4.63;;;3.00;;
4674;SDS011;2351;50.812;12.872;2023-01-10T05:05:53;7.23;;;2.83;;
4674;SDS011;2351;50.812;12.872;2023-01-10T05:08:26;5.37;;;2.90;;
4674;SDS011;2351;50.812;12.872;2023-01-10T05:10:57;6.30;;;2.80;;
4674;SDS011;2351;50.812;12.872;2023-01-10T05:13:29;3.07;;;2.33;;
4674;SDS011;2351;50.812;12.872;2023-01-10T05:16:01;4.27;;;2.80;;
4674;SDS011;2351;50.812;12.872;2023-01-10T05:18:33;6.77;;;2.47;;
4674;SDS011;2351;50.812;12.872;2023-01-10T05:21:06;3.17;;;2.20;;
4674;SDS011;2351;50.812;12.872;2023-01-10T05:23:40;6.40;;;3.10;;
4674;SDS011;2351;50.812;12.872;2023-01-10T05:26:13;4.50;;;3.00;;
4674;SDS011;2351;50.812;12.872;2023-01-10T05:28:46;5.27;;;2.43;;
4674;SDS011;2351;50.812;12.872;2023-01-10T05:31:18;9.70;;;2.73;;
4674;SDS011;2351;50.812;12.872;2023-01-10T05:33:50;6.07;;;3.03;;
4674;SDS011;2351;50.812;12.872;2023-01-10T05:36:22;4.53;;;2.90;;
4674;SDS011;2351;50.812;12.872;2023-01-10T05:38:55;8.67;;;3.40;;
4674;SDS011;2351;50.812;12.872;2023-01-10T05:41:27;3.87;;;2.70;;
4674;SDS011;2351;50.812;12.872;2023-01-10T05:43:58;5.23;;;2.90;;
4674;SDS011;2351;50.812;12.872;2023-01-10T05:46:30;5.50;;;2.70;;
4674;SDS011;2351;50.812;12.872;2023-01-10T05:49:02;6.23;;;2.60;;
4674;SDS011;2351;50.812;12.872;2023-01-10T05:51:34;8.17;;;3.10;;
4674;SDS011;2351;50.812;12.872;2023-01-10T05:54:07;9.20;;;3.87;;
4674;SDS011;2351;50.812;12.872;2023-01-10T05:56:38;4.50;;;3.07;;
4674;SDS011;2351;50.812;12.872;2023-01-10T05:59:10;9.70;;;3.27;;
4674;SDS011;2351;50.812;12.872;2023-01-10T06:01:42;8.60;;;3.67;;
4674;SDS011;2351;50.812;12.872;2023-01-10T06:04:13;7.03;;;3.80;;
4674;SDS011;2351;50.812;12.872;2023-01-10T06:06:45;5.30;;;3.40;;
4674;SDS011;2351;50.812;12.872;2023-01-10T06:09:18;5.20;;;3.10;;
4674;SDS011;2351;50.812;12.872;2023-01-10T06:11:50;5.80;;;3.43;;
4674;SDS011;2351;50.812;12.872;2023-01-10T06:14:22;7.97;;;3.00;;
4674;SDS011;2351;50.812;12.872;2023-01-10T06:16:53;5.60;;;2.90;;
4674;SDS011;2351;50.812;12.872;2023-01-10T06:19:25;4.97;;;2.57;;
4674;SDS011;2351;50.812;12.872;2023-01-10T06:21:57;4.37;;;2.90;;
4674;SDS011;2351;50.812;12.872;2023-01-10T06:24:30;6.13;;;3.00;;
4674;SDS011;2351;50.812;12.872;2023-01-10T06:27:02;4.50;;;3.10;;
4674;SDS011;2351;50.812;12.872;2023-01-10T06:29:34;6.70;;;3.70;;
4674;SDS011;2351;50.812;12.872;2023-01-10T06:32:05;3.70;;;2.80;;
4674;SDS011;2351;50.812;12.872;2023-01-10T06:34:37;5.47;;;3.40;;
4674;SDS011;2351;50.812;12.872;2023-01-10T06:37:09;10.70;;;3.37;;
4674;SDS011;2351;50.812;12.872;2023-01-10T06:39:42;7.30;;;3.53;;
4674;SDS011;2351;50.812;12.872;2023-01-10T06:42:15;6.87;;;3.10;;
4674;SDS011;2351;50.812;12.872;2023-01-10T06:44:47;4.60;;;3.27;;
4674;SDS011;2351;50.812;12.872;2023-01-10T06:47:18;5.43;;;3.90;;
4674;SDS011;2351;50.812;12.872;2023-01-10T06:49:50;6.40;;;3.60;;
4674;SDS011;2351;50.812;12.872;2023-01-10T06:52:22;7.00;;;3.43;;
4674;SDS011;2351;50.812;12.872;2023-01-10T06:54:55;5.97;;;2.70;;
4674;SDS011;2351;50.812;12.872;2023-01-10T06:57:26;5.83;;;3.53;;
4674;SDS011;2351;50.812;12.872;2023-01-10T06:59:58;7.83;;;3.47;;
4674;SDS011;2351;50.812;12.872;2023-01-10T07:02:30;7.93;;;3.53;;
4674;SDS011;2351;50.812;12.872;2023-01-10T07:05:02;7.03;;;2.87;;
4674;SDS011;2351;50.812;12.872;2023-01-10T07:07:34;4.20;;;2.80;;
4674;SDS011;2351;50.812;12.872;2023-01-10T07:10:08;4.53;;;3.60;;
4674;SDS011;2351;50.812;12.872;2023-01-10T07:12:40;14.23;;;3.40;;
4674;SDS011;2351;50.812;12.872;2023-01-10T07:15:12;10.40;;;3.20;;
4674;SDS011;2351;50.812;12.872;2023-01-10T07:17:45;6.53;;;3.73;;
4674;SDS011;2351;50.812;12.872;2023-01-10T07:20:17;4.87;;;2.73;;
4674;SDS011;2351;50.812;12.872;2023-01-10T07:22:53;9.23;;;3.93;;
4674;SDS011;2351;50.812;12.872;2023-01-10T07:25:27;6.60;;;3.03;;
4674;SDS011;2351;50.812;12.872;2023-01-10T07:28:00;8.63;;;3.57;;
4674;SDS011;2351;50.812;12.872;2023-01-10T07:30:31;7.80;;;3.30;;
4674;SDS011;2351;50.812;12.872;2023-01-10T07:33:03;9.43;;;3.43;;
4674;SDS011;2351;50.812;12.872;2023-01-10T07:35:35;7.67;;;3.57;;
4674;SDS011;2351;50.812;12.872;2023-01-10T07:38:07;11.80;;;4.60;;
4674;SDS011;2351;50.812;12.872;2023-01-10T07:40:40;14.43;;;4.17;;
4674;SDS011;2351;50.812;12.872;2023-01-10T07:43:12;7.50;;;3.10;;
4674;SDS011;2351;50.812;12.872;2023-01-10T07:45:43;4.70;;;2.90;;
4674;SDS011;2351;50.812;12.872;2023-01-10T07:48:16;5.60;;;3.37;;
4674;SDS011;2351;50.812;12.872;2023-01-10T07:50:47;3.63;;;2.97;;
4674;SDS011;2351;50.812;12.872;2023-01-10T07:53:19;6.70;;;2.50;;
4674;SDS011;2351;50.812;12.872;2023-01-10T07:55:52;11.50;;;3.70;;
4674;SDS011;2351;50.812;12.872;2023-01-10T07:58:24;4.10;;;2.87;;
4674;SDS011;2351;50.812;12.872;2023-01-10T08:00:56;12.43;;;3.13;;
4674;SDS011;2351;50.812;12.872;2023-01-10T08:03:28;5.87;;;3.33;;
4674;SDS011;2351;50.812;12.872;2023-01-10T08:06:02;8.13;;;3.00;;
4674;SDS011;2351;50.812;12.872;2023-01-10T08:08:35;4.20;;;2.90;;
4674;SDS011;2351;50.812;12.872;2023-01-10T08:11:09;5.00;;;3.00;;
4674;SDS011;2351;50.812;12.872;2023-01-10T08:13:40;14.53;;;3.33;;
4674;SDS011;2351;50.812;12.872;2023-01-10T08:16:12;7.87;;;3.20;;
4674;SDS011;2351;50.812;12.872;2023-01-10T08:18:44;7.10;;;3.07;;
4674;SDS011;2351;50.812;12.872;2023-01-10T08:21:17;6.57;;;2.90;;
4674;SDS011;2351;50.812;12.872;2023-01-10T08:23:48;10.27;;;3.33;;
4674;SDS011;2351;50.812;12.872;2023-01-10T08:26:23;5.33;;;2.83;;
4674;SDS011;2351;50.812;12.872;2023-01-10T08:28:54;3.03;;;2.70;;
4674;SDS011;2351;50.812;12.872;2023-01-10T08:31:26;6.93;;;3.60;;
4674;SDS011;2351;50.812;12.872;2023-01-10T08:33:58;6.97;;;3.17;;
4674;SDS011;2351;50.812;12.872;2023-01-10T08:36:29;6.77;;;3.30;;
4674;SDS011;2351;50.812;12.872;2023-01-10T08:39:01;10.43;;;3.63;;
4674;SDS011;2351;50.812;12.872;2023-01-10T08:41:34;6.33;;;2.93;;
4674;SDS011;2351;50.812;12.872;2023-01-10T08:44:08;5.23;;;3.50;;
4674;SDS011;2351;50.812;12.872;2023-01-10T08:46:41;6.37;;;2.60;;
4674;SDS011;2351;50.812;12.872;2023-01-10T08:49:13;4.10;;;3.27;;
4674;SDS011;2351;50.812;12.872;2023-01-10T08:51:44;7.47;;;3.00;;
4674;SDS011;2351;50.812;12.872;2023-01-10T08:54:16;8.63;;;2.93;;
4674;SDS011;2351;50.812;12.872;2023-01-10T08:56:49;8.70;;;3.40;;
4674;SDS011;2351;50.812;12.872;2023-01-10T08:59:21;7.00;;;3.03;;
4674;SDS011;2351;50.812;12.872;2023-01-10T09:01:53;8.87;;;3.20;;
4674;SDS011;2351;50.812;12.872;2023-01-10T09:04:27;4.53;;;2.87;;
4674;SDS011;2351;50.812;12.872;2023-01-10T09:06:59;9.90;;;3.53;;
4674;SDS011;2351;50.812;12.872;2023-01-10T09:09:31;7.87;;;3.13;;
4674;SDS011;2351;50.812;12.872;2023-01-10T09:12:04;10.33;;;3.93;;
4674;SDS011;2351;50.812;12.872;2023-01-10T09:14:56;6.10;;;3.37;;
4674;SDS011;2351;50.812;12.872;2023-01-10T09:17:28;9.00;;;3.70;;
4674;SDS011;2351;50.812;12.872;2023-01-10T09:19:59;3.43;;;2.80;;
4674;SDS011;2351;50.812;12.872;2023-01-10T09:22:35;6.10;;;2.80;;
4674;SDS011;2351;50.812;12.872;2023-01-10T09:25:06;5.03;;;3.03;;
4674;SDS011;2351;50.812;12.872;2023-01-10T09:27:40;4.30;;;2.80;;
4674;SDS011;2351;50.812;12.872;2023-01-10T09:30:12;10.33;;;2.87;;
4674;SDS011;2351;50.812;12.872;2023-01-10T09:32:44;6.77;;;3.30;;
4674;SDS011;2351;50.812;12.872;2023-01-10T09:35:20;10.23;;;3.63;;
4674;SDS011;2351;50.812;12.872;2023-01-10T09:37:52;5.53;;;2.83;;
4674;SDS011;2351;50.812;12.872;2023-01-10T09:40:29;7.47;;;3.40;;
4674;SDS011;2351;50.812;12.872;2023-01-10T09:43:14;6.43;;;4.03;;
4674;SDS011;2351;50.812;12.872;2023-01-10T09:45:50;9.70;;;4.07;;
4674;SDS011;2351;50.812;12.872;2023-01-10T09:48:33;5.97;;;2.20;;
4674;SDS011;2351;50.812;12.872;2023-01-10T09:51:17;3.93;;;2.23;;
4674;SDS011;2351;50.812;12.872;2023-01-10T09:53:59;5.00;;;2.47;;
4674;SDS011;2351;50.812;12.872;2023-01-10T09:56:35;8.00;;;2.13;;
4674;SDS011;2351;50.812;12.872;2023-01-10T09:59:11;8.47;;;2.73;;
4674;SDS011;2351;50.812;12.872;2023-01-10T10:01:46;2.67;;;2.20;;
4674;SDS011;2351;50.812;12.872;2023-01-10T10:04:20;6.93;;;2.87;;
4674;SDS011;2351;50.812;12.872;2023-01-10T10:06:57;4.60;;;2.20;;
4674;SDS011;2351;50.812;12.872;2023-01-10T10:09:30;5.53;;;2.53;;
4674;SDS011;2351;50.812;12.872;2023-01-10T10:12:08;2.03;;;1.83;;
4674;SDS011;2351;50.812;12.872;2023-01-10T10:15:00;17.70;;;2.57;;
4674;SDS011;2351;50.812;12.872;2023-01-10T10:17:42;16.07;;;2.93;;
4674;SDS011;2351;50.812;12.872;2023-01-10T10:20:25;11.93;;;2.70;;
4674;SDS011;2351;50.812;12.872;2023-01-10T10:23:18;8.47;;;3.70;;
4674;SDS011;2351;50.812;12.872;2023-01-10T10:26:00;5.83;;;2.23;;
4674;SDS011;2351;50.812;12.872;2023-01-10T10:28:44;6.37;;;2.50;;
4674;SDS011;2351;50.812;12.872;2023-01-10T10:31:32;3.50;;;2.27;;
4674;SDS011;2351;50.812;12.872;2023-01-10T10:34:13;3.90;;;2.10;;
4674;SDS011;2351;50.812;12.872;2023-01-10T10:36:53;2.10;;;1.70;;
4674;SDS011;2351;50.812;12.872;2023-01-10T10:39:29;3.63;;;1.53;;
4674;SDS011;2351;50.812;12.872;2023-01-10T10:42:09;3.30;;;1.87;;
4674;SDS011;2351;50.812;12.872;2023-01-10T10:44:44;3.80;;;2.10;;
4674;SDS011;2351;50.812;12.872;2023-01-10T10:47:22;6.07;;;2.70;;
4674;SDS011;2351;50.812;12.872;2023-01-10T10:49:58;4.43;;;2.10;;
4674;SDS011;2351;50.812;12.872;2023-01-10T10:52:37;10.87;;;2.67;;
4674;SDS011;2351;50.812;12.872;2023-01-10T10:55:11;5.43;;;2.13;;
4674;SDS011;2351;50.812;12.872;2023-01-10T10:57:45;4.03;;;1.80;;
4674;SDS011;2351;50.812;12.872;2023-01-10T11:00:18;3.80;;;1.93;;
4674;SDS011;2351;50.812;12.872;2023-01-10T11:02:56;3.60;;;2.00;;
4674;SDS011;2351;50.812;12.872;2023-01-10T11:05:33;4.70;;;2.27;;
4674;SDS011;2351;50.812;12.872;2023-01-10T11:08:08;5.93;;;2.47;;
4674;SDS011;2351;50.812;12.872;2023-01-10T11:10:42;7.10;;;2.13;;
4674;SDS011;2351;50.812;12.872;2023-01-10T11:13:19;8.03;;;2.23;;
4674;SDS011;2351;50.812;12.872;2023-01-10T11:15:56;10.50;;;2.50;;
4674;SDS011;2351;50.812;12.872;2023-01-10T11:18:29;2.90;;;1.60;;
4674;SDS011;2351;50.812;12.872;2023-01-10T11:21:02;3.87;;;1.77;;
4674;SDS011;2351;50.812;12.872;2023-01-10T11:23:39;3.60;;;1.90;;
4674;SDS011;2351;50.812;12.872;2023-01-10T11:26:21;6.13;;;1.80;;
4674;SDS011;2351;50.812;12.872;2023-01-10T11:29:03;4.47;;;1.83;;
4674;SDS011;2351;50.812;12.872;2023-01-10T11:31:37;5.00;;;2.03;;
4674;SDS011;2351;50.812;12.872;2023-01-10T11:34:18;4.40;;;1.80;;
4674;SDS011;2351;50.812;12.872;2023-01-10T11:36:58;9.20;;;1.40;;
4674;SDS011;2351;50.812;12.872;2023-01-10T11:39:30;4.77;;;1.37;;
4674;SDS011;2351;50.812;12.872;2023-01-10T11:42:19;2.80;;;1.53;;
4674;SDS011;2351;50.812;12.872;2023-01-10T11:45:12;4.03;;;1.40;;
4674;SDS011;2351;50.812;12.872;2023-01-10T11:47:53;3.07;;;1.33;;
4674;SDS011;2351;50.812;12.872;2023-01-10T11:50:31;3.50;;;1.60;;
4674;SDS011;2351;50.812;12.872;2023-01-10T11:53:05;1.40;;;1.30;;
4674;SDS011;2351;50.812;12.872;2023-01-10T11:55:56;2.40;;;1.33;;
4674;SDS011;2351;50.812;12.872;2023-01-10T11:58:29;3.13;;;1.63;;
4674;SDS011;2351;50.812;12.872;2023-01-10T12:01:03;2.30;;;1.40;;
4674;SDS011;2351;50.812;12.872;2023-01-10T12:03:35;1.53;;;1.23;;
4674;SDS011;2351;50.812;12.872;2023-01-10T12:06:12;5.00;;;1.27;;
4674;SDS011;2351;50.812;12.872;2023-01-10T12:08:47;5.20;;;1.57;;
4674;SDS011;2351;50.812;12.872;2023-01-10T12:11:24;7.50;;;1.47;;
4674;SDS011;2351;50.812;12.872;2023-01-10T12:14:00;5.30;;;1.20;;
4674;SDS011;2351;50.812;12.872;2023-01-10T12:16:33;4.33;;;1.20;;
4674;SDS011;2351;50.812;12.872;2023-01-10T12:19:08;2.37;;;1.00;;
4674;SDS011;2351;50.812;12.872;2023-01-10T12:21:43;2.50;;;1.10;;
4674;SDS011;2351;50.812;12.872;2023-01-10T12:24:16;3.70;;;1.00;;
4674;SDS011;2351;50.812;12.872;2023-01-10T12:26:52;6.27;;;1.30;;
4674;SDS011;2351;50.812;12.872;2023-01-10T12:29:35;1.70;;;0.87;;
4674;SDS011;2351;50.812;12.872;2023-01-10T12:32:12;3.97;;;1.40;;
4674;SDS011;2351;50.812;12.872;2023-01-10T12:34:51;2.20;;;1.20;;
4674;SDS011;2351;50.812;12.872;2023-01-10T12:37:36;1.20;;;1.10;;
4674;SDS011;2351;50.812;12.872;2023-01-10T12:40:14;0.80;;;0.80;;
4674;SDS011;2351;50.812;12.872;2023-01-10T12:42:51;3.77;;;1.43;;
4674;SDS011;2351;50.812;12.872;2023-01-10T12:45:45;12.33;;;2.40;;
4674;SDS011;2351;50.812;12.872;2023-01-10T12:48:22;5.80;;;1.87;;
4674;SDS011;2351;50.812;12.872;2023-01-10T12:50:58;4.10;;;1.60;;
4674;SDS011;2351;50.812;12.872;2023-01-10T12:53:37;3.17;;;2.10;;
4674;SDS011;2351;50.812;12.872;2023-01-10T12:56:13;8.30;;;2.20;;
4674;SDS011;2351;50.812;12.872;2023-01-10T12:58:48;6.33;;;3.07;;
4674;SDS011;2351;50.812;12.872;2023-01-10T13:01:26;4.40;;;1.73;;
4674;SDS011;2351;50.812;12.872;2023-01-10T13:04:02;2.10;;;1.30;;
4674;SDS011;2351;50.812;12.872;2023-01-10T13:06:39;4.63;;;1.57;;
4674;SDS011;2351;50.812;12.872;2023-01-10T13:09:15;6.63;;;1.03;;
4674;SDS011;2351;50.812;12.872;2023-01-10T13:11:50;3.40;;;0.90;;
4674;SDS011;2351;50.812;12.872;2023-01-10T13:14:28;3.63;;;1.67;;
4674;SDS011;2351;50.812;12.872;2023-01-10T13:17:09;4.43;;;1.20;;
4674;SDS011;2351;50.812;12.872;2023-01-10T13:22:56;10.63;;;1.50;;
4674;SDS011;2351;50.812;12.872;2023-01-10T13:25:32;1.90;;;1.20;;
4674;SDS011;2351;50.812;12.872;2023-01-10T13:28:13;5.30;;;1.10;;
4674;SDS011;2351;50.812;12.872;2023-01-10T13:30:50;3.10;;;1.53;;
4674;SDS011;2351;50.812;12.872;2023-01-10T13:33:23;1.43;;;1.00;;
4674;SDS011;2351;50.812;12.872;2023-01-10T13:35:57;4.63;;;1.57;;
4674;SDS011;2351;50.812;12.872;2023-01-10T13:38:44;5.40;;;1.47;;
4674;SDS011;2351;50.812;12.872;2023-01-10T13:41:21;0.87;;;0.87;;
4674;SDS011;2351;50.812;12.872;2023-01-10T13:44:12;4.50;;;1.03;;
4674;SDS011;2351;50.812;12.872;2023-01-10T13:46:45;1.70;;;1.50;;
4674;SDS011;2351;50.812;12.872;2023-01-10T13:55:20;3.60;;;1.20;;
4674;SDS011;2351;50.812;12.872;2023-01-10T13:57:56;0.93;;;0.93;;
4674;SDS011;2351;50.812;12.872;2023-01-10T14:00:42;1.70;;;1.40;;
4674;SDS011;2351;50.812;12.872;2023-01-10T14:03:50;1.70;;;1.20;;
4674;SDS011;2351;50.812;12.872;2023-01-10T14:06:34;3.97;;;1.23;;
4674;SDS011;2351;50.812;12.872;2023-01-10T14:09:28;3.50;;;0.80;;
4674;SDS011;2351;50.812;12.872;2023-01-10T14:12:07;3.00;;;1.90;;
4674;SDS011;2351;50.812;12.872;2023-01-10T14:15:02;2.40;;;1.63;;
4674;SDS011;2351;50.812;12.872;2023-01-10T14:17:38;10.23;;;1.80;;
4674;SDS011;2351;50.812;12.872;2023-01-10T14:20:14;2.70;;;1.67;;
4674;SDS011;2351;50.812;12.872;2023-01-10T14:22:57;3.70;;;1.00;;
4674;SDS011;2351;50.812;12.872;2023-01-10T14:25:32;4.00;;;1.63;;
4674;SDS011;2351;50.812;12.872;2023-01-10T14:28:15;4.80;;;1.80;;
4674;SDS011;2351;50.812;12.872;2023-01-10T14:30:58;6.63;;;1.67;;
4674;SDS011;2351;50.812;12.872;2023-01-10T14:33:34;5.43;;;2.50;;
4674;SDS011;2351;50.812;12.872;2023-01-10T14:36:07;7.93;;;2.20;;
4674;SDS011;2351;50.812;12.872;2023-01-10T14:38:44;3.67;;;2.00;;
4674;SDS011;2351;50.812;12.872;2023-01-10T14:41:18;2.37;;;1.67;;
4674;SDS011;2351;50.812;12.872;2023-01-10T14:43:58;4.20;;;2.57;;
4674;SDS011;2351;50.812;12.872;2023-01-10T14:46:36;4.63;;;1.60;;
4674;SDS011;2351;50.812;12.872;2023-01-10T14:49:18;3.63;;;1.47;;
4674;SDS011;2351;50.812;12.872;2023-01-10T14:51:53;1.43;;;1.33;;
4674;SDS011;2351;50.812;12.872;2023-01-10T14:54:30;1.30;;;1.20;;
4674;SDS011;2351;50.812;12.872;2023-01-10T14:57:01;2.97;;;2.00;;
4674;SDS011;2351;50.812;12.872;2023-01-10T14:59:33;4.87;;;1.90;;
4674;SDS011;2351;50.812;12.872;2023-01-10T15:02:11;2.83;;;1.63;;
4674;SDS011;2351;50.812;12.872;2023-01-10T15:04:51;1.83;;;1.40;;
4674;SDS011;2351;50.812;12.872;2023-01-10T15:07:26;3.27;;;1.80;;
4674;SDS011;2351;50.812;12.872;2023-01-10T15:09:58;4.30;;;2.07;;
4674;SDS011;2351;50.812;12.872;2023-01-10T15:12:33;3.40;;;2.10;;
4674;SDS011;2351;50.812;12.872;2023-01-10T15:15:07;3.97;;;2.23;;
4674;SDS011;2351;50.812;12.872;2023-01-10T15:17:47;2.80;;;2.03;;
4674;SDS011;2351;50.812;12.872;2023-01-10T15:20:19;3.87;;;2.10;;
4674;SDS011;2351;50.812;12.872;2023-01-10T15:22:53;6.70;;;1.70;;
4674;SDS011;2351;50.812;12.872;2023-01-10T15:25:27;2.07;;;1.70;;
4674;SDS011;2351;50.812;12.872;2023-01-10T15:28:11;1.70;;;1.60;;
4674;SDS011;2351;50.812;12.872;2023-01-10T15:30:45;3.20;;;1.67;;
4674;SDS011;2351;50.812;12.872;2023-01-10T15:33:22;1.50;;;1.30;;
4674;SDS011;2351;50.812;12.872;2023-01-10T15:36:01;3.50;;;1.70;;
4674;SDS011;2351;50.812;12.872;2023-01-10T15:38:34;1.53;;;1.23;;
4674;SDS011;2351;50.812;12.872;2023-01-10T15:41:08;2.80;;;1.50;;
4674;SDS011;2351;50.812;12.872;2023-01-10T15:43:46;1.70;;;1.10;;
4674;SDS011;2351;50.812;12.872;2023-01-10T15:46:19;4.27;;;1.50;;
4674;SDS011;2351;50.812;12.872;2023-01-10T15:48:54;1.07;;;0.97;;
4674;SDS011;2351;50.812;12.872;2023-01-10T15:51:31;4.70;;;2.53;;
4674;SDS011;2351;50.812;12.872;2023-01-10T15:54:05;2.10;;;1.90;;
4674;SDS011;2351;50.812;12.872;2023-01-10T15:57:05;4.50;;;2.10;;
4674;SDS011;2351;50.812;12.872;2023-01-10T15:59:38;3.50;;;1.70;;
4674;SDS011;2351;50.812;12.872;2023-01-10T16:02:22;2.17;;;1.40;;
4674;SDS011;2351;50.812;12.872;2023-01-10T16:04:57;5.30;;;1.83;;
4674;SDS011;2351;50.812;12.872;2023-01-10T16:07:40;2.57;;;1.40;;
4674;SDS011;2351;50.812;12.872;2023-01-10T16:10:15;2.17;;;1.77;;
4674;SDS011;2351;50.812;12.872;2023-01-10T16:12:49;3.63;;;2.07;;
4674;SDS011;2351;50.812;12.872;2023-01-10T16:15:39;5.67;;;2.30;;